Queen Of Nanaimo — VCNX — position and weather

sailwx.info

Track history (hours):
 
Tides and Currents Weather Stations Pressure Air Temp Water Temp Dewpoint Dewpoint Depression Visibility Wind Speed Wind Dir Waves Ship Positions

Queen Of Nanaimo

Last reported at 2015-Jul-04 10:20 UTC. Time now 2015-Jul-04 11:47 UTC.
Position N 48°51' W 123°27'.

Length 130 m; draft 4 m.

Type: Passenger vessel. MMSI: 316001254.

Date/timePositionNaut miles runAvg speedWind from/ knotsBaromVisibWave heightAir tempDewpointWater temp
2015-Jul-04 10:20N 48°51' W 123°27'0 0.0
2015-Jul-04 09:13N 48°51' W 123°27'0 0.0
2015-Jul-04 08:07N 48°51' W 123°27'0 0.0
2015-Jul-04 07:26N 48°51' W 123°27'5 2.6
2015-Jul-04 05:33N 48°48' W 123°21'3 2.8
2015-Jul-04 04:34N 48°51' W 123°20'1212.3
2015-Jul-04 03:33N 49°00' W 123°08'2 2.1
2015-Jul-04 02:34N 48°58' W 123°09'8 4.1
2015-Jul-04 00:30N 48°53' W 123°19'1011.0
2015-Jul-03 23:33N 49°00' W 123°08'3 3.2
2015-Jul-03 22:33N 48°57' W 123°11'12 6.1
2015-Jul-03 20:33N 48°51' W 123°27'5 4.9
2015-Jul-03 19:33N 48°49' W 123°20'4 3.9
2015-Jul-03 18:32N 48°53' W 123°19'1010.5
2015-Jul-03 17:34N 48°60' W 123°08'0 0.5
2015-Jul-03 16:33N 49°00' W 123°08'1110.6
2015-Jul-03 15:33N 48°53' W 123°19'2 2.0
2015-Jul-03 14:34N 48°51' W 123°20'3 3.3
2015-Jul-03 13:33N 48°49' W 123°24'3 2.5
2015-Jul-03 12:33N 48°51' W 123°27'0 0.0
2015-Jul-03 11:33N 48°51' W 123°27'0 0.0
2015-Jul-03 10:33N 48°51' W 123°27'0 0.0
2015-Jul-03 09:33N 48°51' W 123°27'0 0.0
2015-Jul-03 08:33N 48°51' W 123°27'0 0.0
2015-Jul-03 07:33N 48°51' W 123°27'0 0.0
2015-Jul-03 06:33N 48°51' W 123°27'4 4.2
2015-Jul-03 05:34N 48°48' W 123°22'3 3.1
2015-Jul-03 04:33N 48°51' W 123°20'6 5.6
2015-Jul-03 03:33N 48°55' W 123°15'7 6.8
2015-Jul-03 02:33N 49°00' W 123°08'5 5.2
2015-Jul-03 01:33N 48°56' W 123°12'7 7.2
2015-Jul-03 00:33N 48°52' W 123°21'4 3.8
2015-Jul-02 23:34N 48°48' W 123°19'6 5.8
2015-Jul-02 22:34N 48°51' W 123°26'0 0.2
2015-Jul-02 21:33N 48°51' W 123°27'2 2.2
2015-Jul-02 20:33N 48°50' W 123°25'4 3.5
2015-Jul-02 19:33N 48°51' W 123°20'2 1.9
2015-Jul-02 18:33N 48°53' W 123°19'1110.7
2015-Jul-02 17:33N 49°00' W 123°08'1 1.2
2015-Jul-02 16:34N 48°59' W 123°08'10 9.5
2015-Jul-02 15:33N 48°53' W 123°19'3 3.0
2015-Jul-02 14:33N 48°50' W 123°20'3 3.2
2015-Jul-02 13:33N 48°50' W 123°25'2 1.9
2015-Jul-02 12:33N 48°51' W 123°27'0 0.0
2015-Jul-02 11:33N 48°51' W 123°27'0 0.0
2015-Jul-02 10:33N 48°51' W 123°27'0 0.0
2015-Jul-02 09:33N 48°51' W 123°27'0 0.0
2015-Jul-02 08:33N 48°51' W 123°27'0 0.0
2015-Jul-02 07:29N 48°51' W 123°27'1 0.7
2015-Jul-02 05:32N 48°50' W 123°25'3 3.5
2015-Jul-02 04:33N 48°51' W 123°20'2 2.0
2015-Jul-02 03:33N 48°53' W 123°18'1110.5
2015-Jul-02 02:34N 49°00' W 123°08'4 4.2
2015-Jul-02 01:33N 48°57' W 123°11'7 7.1
2015-Jul-02 00:33N 48°52' W 123°19'4 3.7
2015-Jul-01 23:33N 48°48' W 123°19'6 5.5
2015-Jul-01 22:33N 48°51' W 123°26'0 0.3
2015-Jul-01 21:32N 48°51' W 123°27'0 0.4
2015-Jul-01 20:27N 48°51' W 123°26'5 5.1
2015-Jul-01 19:33N 48°49' W 123°20'4 4.0
2015-Jul-01 18:33N 48°53' W 123°19'10 9.6
2015-Jul-01 17:33N 48°60' W 123°09'1 1.1
2015-Jul-01 16:33N 49°00' W 123°08'1110.7
2015-Jul-01 15:33N 48°53' W 123°19'2 2.0
2015-Jul-01 14:33N 48°51' W 123°20'3 3.4
2015-Jul-01 13:33N 48°50' W 123°25'2 1.8
2015-Jul-01 12:21N 48°51' W 123°27'0 0.0
2015-Jul-01 11:32N 48°51' W 123°27'6 1.0
2015-Jul-01 05:33N 48°48' W 123°19'4 3.5
2015-Jul-01 04:33N 48°51' W 123°21'3 2.9
2015-Jul-01 03:33N 48°53' W 123°18'10 9.7
2015-Jul-01 02:33N 49°00' W 123°08'1 1.2
2015-Jul-01 01:34N 48°59' W 123°09'9 9.4
2015-Jul-01 00:33N 48°53' W 123°19'3 3.5
2015-Jun-30 23:33N 48°49' W 123°20'4 4.1
2015-Jun-30 22:33N 48°51' W 123°26'1 0.5
2015-Jun-30 21:31N 48°51' W 123°27'5 5.5
2015-Jun-30 20:34N 48°48' W 123°20'3 2.7
2015-Jun-30 19:33N 48°51' W 123°20'2 1.9
2015-Jun-30 18:34N 48°53' W 123°19'1110.6
2015-Jun-30 17:33N 49°00' W 123°08'0 0.1
2015-Jun-30 16:34N 49°00' W 123°08'1110.6
2015-Jun-30 15:34N 48°53' W 123°19'2 2.4
2015-Jun-30 14:33N 48°50' W 123°20'3 2.9
2015-Jun-30 13:33N 48°50' W 123°25'2 0.8
2015-Jun-30 11:18N 48°51' W 123°27'0 0.0
2015-Jun-30 10:29N 48°51' W 123°27'0 0.0
2015-Jun-30 08:30N 48°51' W 123°27'0 0.0
2015-Jun-30 07:32N 48°51' W 123°27'0 0.0
2015-Jun-30 05:27N 48°51' W 123°27'6 6.3
2015-Jun-30 04:34N 48°48' W 123°20'5 4.8
2015-Jun-30 03:32N 48°53' W 123°19'9 9.6
2015-Jun-30 02:33N 48°60' W 123°09'1 0.6
2015-Jun-30 01:34N 48°59' W 123°09'9 9.3
2015-Jun-30 00:34N 48°53' W 123°19'2 2.5
2015-Jun-29 23:33N 48°50' W 123°20'3 2.9
2015-Jun-29 22:33N 48°50' W 123°25'2 1.7
2015-Jun-29 21:25N 48°51' W 123°27'5 6.3
2015-Jun-29 20:34N 48°48' W 123°20'3 2.7
2015-Jun-29 19:33N 48°51' W 123°20'2 1.9
2015-Jun-29 18:33N 48°53' W 123°19'1110.7
2015-Jun-29 17:34N 49°00' W 123°08'1 0.9
2015-Jun-29 16:33N 48°59' W 123°08'10 9.8
2015-Jun-29 15:33N 48°53' W 123°19'3 2.6
2015-Jun-29 14:34N 48°50' W 123°20'3 0.4
2015-Jun-29 06:12N 48°51' W 123°25'811.9
2015-Jun-29 05:33N 48°55' W 123°16'8 7.6
2015-Jun-29 04:34N 49°00' W 123°08'1312.6
2015-Jun-29 03:34N 48°51' W 123°21'3 2.9
2015-Jun-29 02:34N 48°53' W 123°18'10 9.7
2015-Jun-29 01:33N 49°00' W 123°08'7 6.9
2015-Jun-29 00:33N 48°55' W 123°14'6 5.6
2015-Jun-28 23:34N 48°52' W 123°21'3 1.6
2015-Jun-28 21:31N 48°51' W 123°25'3 3.5
2015-Jun-28 20:33N 48°50' W 123°20'3 2.5
2015-Jun-28 19:33N 48°53' W 123°19'1110.7
2015-Jun-28 18:33N 49°00' W 123°08'0 0.1
2015-Jun-28 17:33N 49°00' W 123°08'1110.6
2015-Jun-28 16:34N 48°53' W 123°19'3 2.5
2015-Jun-28 15:33N 48°50' W 123°20'3 3.0
2015-Jun-28 14:33N 48°50' W 123°25'2 0.2
2015-Jun-28 05:33N 48°51' W 123°23'4 3.9
2015-Jun-28 04:33N 48°53' W 123°18'10 9.7
2015-Jun-28 03:34N 49°00' W 123°08'0 0.0
2015-Jun-28 02:33N 49°00' W 123°08'1 1.2
2015-Jun-28 01:33N 48°59' W 123°09'10 9.5
2015-Jun-28 00:33N 48°53' W 123°19'4 4.2
2015-Jun-27 23:33N 48°48' W 123°20'4 1.8
2015-Jun-27 21:19N 48°50' W 123°25'912.0
2015-Jun-27 20:34N 48°56' W 123°14'6 6.0
2015-Jun-27 19:33N 49°00' W 123°08'1111.5
2015-Jun-27 18:34N 48°51' W 123°19'1 0.7
2015-Jun-27 17:32N 48°52' W 123°20'6 5.7
2015-Jun-27 16:33N 48°56' W 123°15'6 6.4
2015-Jun-27 15:33N 49°00' W 123°08'6 6.1
2015-Jun-27 14:33N 48°55' W 123°13'10 9.7
2015-Jun-27 13:33N 48°51' W 123°27'0 0.0
2015-Jun-27 11:29N 48°51' W 123°27'0 0.0
2015-Jun-27 10:24N 48°51' W 123°27'0 0.0
2015-Jun-27 09:33N 48°51' W 123°27'0 0.0
2015-Jun-27 08:29N 48°51' W 123°27'0 0.0
2015-Jun-27 07:33N 48°51' W 123°27'0 0.0
2015-Jun-27 06:33N 48°51' W 123°27'2 2.3
2015-Jun-27 05:34N 48°49' W 123°25'4 3.7
2015-Jun-27 04:33N 48°52' W 123°20'7 6.9
2015-Jun-27 03:33N 48°57' W 123°13'5 5.0
2015-Jun-27 02:34N 49°00' W 123°08'1110.6
2015-Jun-27 01:34N 48°52' W 123°18'0 0.4
2015-Jun-27 00:34N 48°52' W 123°19'8 7.6
2015-Jun-26 23:33N 48°58' W 123°11'3 3.3
2015-Jun-26 22:34N 49°00' W 123°08'1212.0
2015-Jun-26 21:33N 48°52' W 123°20'4 3.6
2015-Jun-26 20:24N 48°51' W 123°27'6 7.2
2015-Jun-26 19:34N 48°48' W 123°19'5 4.8
2015-Jun-26 18:33N 48°53' W 123°19'9 9.3
2015-Jun-26 17:34N 48°59' W 123°09'1 1.4
2015-Jun-26 16:33N 49°00' W 123°08'1010.1
2015-Jun-26 15:33N 48°53' W 123°18'2 2.3
2015-Jun-26 14:33N 48°51' W 123°20'3 3.4
2015-Jun-26 13:33N 48°49' W 123°24'3 1.3
2015-Jun-26 11:22N 48°51' W 123°27'0 0.0
2015-Jun-26 10:13N 48°51' W 123°27'0 0.1
2015-Jun-26 05:30N 48°51' W 123°26'4 4.5
2015-Jun-26 04:33N 48°50' W 123°20'3 2.9
2015-Jun-26 03:33N 48°53' W 123°19'1110.7
2015-Jun-26 02:33N 49°00' W 123°08'0 0.3
2015-Jun-26 01:34N 49°00' W 123°08'1010.4
2015-Jun-26 00:33N 48°53' W 123°19'2 1.9
2015-Jun-25 23:33N 48°51' W 123°20'4 3.6
2015-Jun-25 22:34N 48°50' W 123°25'1 0.5
2015-Jun-25 20:14N 48°51' W 123°26'6 8.0
2015-Jun-25 19:31N 48°48' W 123°19'4 4.5
2015-Jun-25 18:34N 48°52' W 123°18'8 8.1
2015-Jun-25 17:34N 48°59' W 123°11'3 2.7
2015-Jun-25 16:34N 49°00' W 123°08'1010.4
2015-Jun-25 15:33N 48°53' W 123°18'2 2.1
2015-Jun-25 14:33N 48°51' W 123°20'3 3.4
2015-Jun-25 13:33N 48°49' W 123°24'3 1.0
2015-Jun-25 11:04N 48°51' W 123°27'0 0.0
2015-Jun-25 10:31N 48°51' W 123°27'0 0.0
2015-Jun-25 09:33N 48°51' W 123°27'0 0.0
2015-Jun-25 06:33N 48°51' W 123°27'0 0.0
2015-Jun-25 05:29N 48°51' W 123°27'6 6.5
2015-Jun-25 04:33N 48°48' W 123°19'5 4.6
2015-Jun-25 03:33N 48°53' W 123°19'9 9.1
2015-Jun-25 02:33N 48°59' W 123°09'1 1.4
2015-Jun-25 01:33N 49°00' W 123°08'1110.7
2015-Jun-25 00:33N 48°53' W 123°19'3 2.5
2015-Jun-24 23:33N 48°50' W 123°20'3 3.0
2015-Jun-24 22:33N 48°50' W 123°25'1 0.5
2015-Jun-24 20:14N 48°51' W 123°26'6 7.3
2015-Jun-24 19:29N 48°48' W 123°19'5 5.0
2015-Jun-24 18:33N 48°53' W 123°19'9 9.0
2015-Jun-24 17:33N 48°59' W 123°10'2 1.7
2015-Jun-24 16:33N 49°00' W 123°08'10 9.9
2015-Jun-24 15:33N 48°53' W 123°18'3 2.6
2015-Jun-24 14:31N 48°51' W 123°20'3 3.4
2015-Jun-24 13:33N 48°49' W 123°24'3 2.1
2015-Jun-24 12:17N 48°51' W 123°27'0 0.0
2015-Jun-24 11:32N 48°51' W 123°27'0 0.0
2015-Jun-24 10:31N 48°51' W 123°27'  
Track history (hours):
 
Tides and Currents Weather Stations Pressure Air Temp Water Temp Dewpoint Dewpoint Depression Visibility Wind Speed Wind Dir Waves Ship Positions

Queen Of Nanaimo

Last reported at 2015-Jul-04 10:20 UTC. Time now 2015-Jul-04 11:47 UTC.
Position N 48°51' W 123°27'.

Length 130 m; draft 4 m.

Type: Passenger vessel. MMSI: 316001254.

Date/timePositionNaut miles runAvg speedWind from/ knotsBaromVisibWave heightAir tempDewpointWater temp
2015-Jul-04 10:20N 48°51' W 123°27'0 0.0
2015-Jul-04 09:13N 48°51' W 123°27'0 0.0
2015-Jul-04 08:07N 48°51' W 123°27'0 0.0
2015-Jul-04 07:26N 48°51' W 123°27'5 2.6
2015-Jul-04 05:33N 48°48' W 123°21'3 2.8
2015-Jul-04 04:34N 48°51' W 123°20'1212.3
2015-Jul-04 03:33N 49°00' W 123°08'2 2.1
2015-Jul-04 02:34N 48°58' W 123°09'8 4.1
2015-Jul-04 00:30N 48°53' W 123°19'1011.0
2015-Jul-03 23:33N 49°00' W 123°08'3 3.2
2015-Jul-03 22:33N 48°57' W 123°11'12 6.1
2015-Jul-03 20:33N 48°51' W 123°27'5 4.9
2015-Jul-03 19:33N 48°49' W 123°20'4 3.9
2015-Jul-03 18:32N 48°53' W 123°19'1010.5
2015-Jul-03 17:34N 48°60' W 123°08'0 0.5
2015-Jul-03 16:33N 49°00' W 123°08'1110.6
2015-Jul-03 15:33N 48°53' W 123°19'2 2.0
2015-Jul-03 14:34N 48°51' W 123°20'3 3.3
2015-Jul-03 13:33N 48°49' W 123°24'3 2.5
2015-Jul-03 12:33N 48°51' W 123°27'0 0.0
2015-Jul-03 11:33N 48°51' W 123°27'0 0.0
2015-Jul-03 10:33N 48°51' W 123°27'0 0.0
2015-Jul-03 09:33N 48°51' W 123°27'0 0.0
2015-Jul-03 08:33N 48°51' W 123°27'0 0.0
2015-Jul-03 07:33N 48°51' W 123°27'0 0.0
2015-Jul-03 06:33N 48°51' W 123°27'4 4.2
2015-Jul-03 05:34N 48°48' W 123°22'3 3.1
2015-Jul-03 04:33N 48°51' W 123°20'6 5.6
2015-Jul-03 03:33N 48°55' W 123°15'7 6.8
2015-Jul-03 02:33N 49°00' W 123°08'5 5.2
2015-Jul-03 01:33N 48°56' W 123°12'7 7.2
2015-Jul-03 00:33N 48°52' W 123°21'4 3.8
2015-Jul-02 23:34N 48°48' W 123°19'6 5.8
2015-Jul-02 22:34N 48°51' W 123°26'0 0.2
2015-Jul-02 21:33N 48°51' W 123°27'2 2.2
2015-Jul-02 20:33N 48°50' W 123°25'4 3.5
2015-Jul-02 19:33N 48°51' W 123°20'2 1.9
2015-Jul-02 18:33N 48°53' W 123°19'1110.7
2015-Jul-02 17:33N 49°00' W 123°08'1 1.2
2015-Jul-02 16:34N 48°59' W 123°08'10 9.5
2015-Jul-02 15:33N 48°53' W 123°19'3 3.0
2015-Jul-02 14:33N 48°50' W 123°20'3 3.2
2015-Jul-02 13:33N 48°50' W 123°25'2 1.9
2015-Jul-02 12:33N 48°51' W 123°27'0 0.0
2015-Jul-02 11:33N 48°51' W 123°27'0 0.0
2015-Jul-02 10:33N 48°51' W 123°27'0 0.0
2015-Jul-02 09:33N 48°51' W 123°27'0 0.0
2015-Jul-02 08:33N 48°51' W 123°27'0 0.0
2015-Jul-02 07:29N 48°51' W 123°27'1 0.7
2015-Jul-02 05:32N 48°50' W 123°25'3 3.5
2015-Jul-02 04:33N 48°51' W 123°20'2 2.0
2015-Jul-02 03:33N 48°53' W 123°18'1110.5
2015-Jul-02 02:34N 49°00' W 123°08'4 4.2
2015-Jul-02 01:33N 48°57' W 123°11'7 7.1
2015-Jul-02 00:33N 48°52' W 123°19'4 3.7
2015-Jul-01 23:33N 48°48' W 123°19'6 5.5
2015-Jul-01 22:33N 48°51' W 123°26'0 0.3
2015-Jul-01 21:32N 48°51' W 123°27'0 0.4
2015-Jul-01 20:27N 48°51' W 123°26'5 5.1
2015-Jul-01 19:33N 48°49' W 123°20'4 4.0
2015-Jul-01 18:33N 48°53' W 123°19'10 9.6
2015-Jul-01 17:33N 48°60' W 123°09'1 1.1
2015-Jul-01 16:33N 49°00' W 123°08'1110.7
2015-Jul-01 15:33N 48°53' W 123°19'2 2.0
2015-Jul-01 14:33N 48°51' W 123°20'3 3.4
2015-Jul-01 13:33N 48°50' W 123°25'2 1.8
2015-Jul-01 12:21N 48°51' W 123°27'0 0.0
2015-Jul-01 11:32N 48°51' W 123°27'6 1.0
2015-Jul-01 05:33N 48°48' W 123°19'4 3.5
2015-Jul-01 04:33N 48°51' W 123°21'3 2.9
2015-Jul-01 03:33N 48°53' W 123°18'10 9.7
2015-Jul-01 02:33N 49°00' W 123°08'1 1.2
2015-Jul-01 01:34N 48°59' W 123°09'9 9.4
2015-Jul-01 00:33N 48°53' W 123°19'3 3.5
2015-Jun-30 23:33N 48°49' W 123°20'4 4.1
2015-Jun-30 22:33N 48°51' W 123°26'1 0.5
2015-Jun-30 21:31N 48°51' W 123°27'5 5.5
2015-Jun-30 20:34N 48°48' W 123°20'3 2.7
2015-Jun-30 19:33N 48°51' W 123°20'2 1.9
2015-Jun-30 18:34N 48°53' W 123°19'1110.6
2015-Jun-30 17:33N 49°00' W 123°08'0 0.1
2015-Jun-30 16:34N 49°00' W 123°08'1110.6
2015-Jun-30 15:34N 48°53' W 123°19'2 2.4
2015-Jun-30 14:33N 48°50' W 123°20'3 2.9
2015-Jun-30 13:33N 48°50' W 123°25'2 0.8
2015-Jun-30 11:18N 48°51' W 123°27'0 0.0
2015-Jun-30 10:29N 48°51' W 123°27'0 0.0
2015-Jun-30 08:30N 48°51' W 123°27'0 0.0
2015-Jun-30 07:32N 48°51' W 123°27'0 0.0
2015-Jun-30 05:27N 48°51' W 123°27'6 6.3
2015-Jun-30 04:34N 48°48' W 123°20'5 4.8
2015-Jun-30 03:32N 48°53' W 123°19'9 9.6
2015-Jun-30 02:33N 48°60' W 123°09'1 0.6
2015-Jun-30 01:34N 48°59' W 123°09'9 9.3
2015-Jun-30 00:34N 48°53' W 123°19'2 2.5
2015-Jun-29 23:33N 48°50' W 123°20'3 2.9
2015-Jun-29 22:33N 48°50' W 123°25'2 1.7
2015-Jun-29 21:25N 48°51' W 123°27'5 6.3
2015-Jun-29 20:34N 48°48' W 123°20'3 2.7
2015-Jun-29 19:33N 48°51' W 123°20'2 1.9
2015-Jun-29 18:33N 48°53' W 123°19'1110.7
2015-Jun-29 17:34N 49°00' W 123°08'1 0.9
2015-Jun-29 16:33N 48°59' W 123°08'10 9.8
2015-Jun-29 15:33N 48°53' W 123°19'3 2.6
2015-Jun-29 14:34N 48°50' W 123°20'3 0.4
2015-Jun-29 06:12N 48°51' W 123°25'811.9
2015-Jun-29 05:33N 48°55' W 123°16'8 7.6
2015-Jun-29 04:34N 49°00' W 123°08'1312.6
2015-Jun-29 03:34N 48°51' W 123°21'3 2.9
2015-Jun-29 02:34N 48°53' W 123°18'10 9.7
2015-Jun-29 01:33N 49°00' W 123°08'7 6.9
2015-Jun-29 00:33N 48°55' W 123°14'6 5.6
2015-Jun-28 23:34N 48°52' W 123°21'3 1.6
2015-Jun-28 21:31N 48°51' W 123°25'3 3.5
2015-Jun-28 20:33N 48°50' W 123°20'3 2.5
2015-Jun-28 19:33N 48°53' W 123°19'1110.7
2015-Jun-28 18:33N 49°00' W 123°08'0 0.1
2015-Jun-28 17:33N 49°00' W 123°08'1110.6
2015-Jun-28 16:34N 48°53' W 123°19'3 2.5
2015-Jun-28 15:33N 48°50' W 123°20'3 3.0
2015-Jun-28 14:33N 48°50' W 123°25'2 0.2
2015-Jun-28 05:33N 48°51' W 123°23'4 3.9
2015-Jun-28 04:33N 48°53' W 123°18'10 9.7
2015-Jun-28 03:34N 49°00' W 123°08'0 0.0
2015-Jun-28 02:33N 49°00' W 123°08'1 1.2
2015-Jun-28 01:33N 48°59' W 123°09'10 9.5
2015-Jun-28 00:33N 48°53' W 123°19'4 4.2
2015-Jun-27 23:33N 48°48' W 123°20'4 1.8
2015-Jun-27 21:19N 48°50' W 123°25'912.0
2015-Jun-27 20:34N 48°56' W 123°14'6 6.0
2015-Jun-27 19:33N 49°00' W 123°08'1111.5
2015-Jun-27 18:34N 48°51' W 123°19'1 0.7
2015-Jun-27 17:32N 48°52' W 123°20'6 5.7
2015-Jun-27 16:33N 48°56' W 123°15'6 6.4
2015-Jun-27 15:33N 49°00' W 123°08'6 6.1
2015-Jun-27 14:33N 48°55' W 123°13'10 9.7
2015-Jun-27 13:33N 48°51' W 123°27'0 0.0
2015-Jun-27 11:29N 48°51' W 123°27'0 0.0
2015-Jun-27 10:24N 48°51' W 123°27'0 0.0
2015-Jun-27 09:33N 48°51' W 123°27'0 0.0
2015-Jun-27 08:29N 48°51' W 123°27'0 0.0
2015-Jun-27 07:33N 48°51' W 123°27'0 0.0
2015-Jun-27 06:33N 48°51' W 123°27'2 2.3
2015-Jun-27 05:34N 48°49' W 123°25'4 3.7
2015-Jun-27 04:33N 48°52' W 123°20'7 6.9
2015-Jun-27 03:33N 48°57' W 123°13'5 5.0
2015-Jun-27 02:34N 49°00' W 123°08'1110.6
2015-Jun-27 01:34N 48°52' W 123°18'0 0.4
2015-Jun-27 00:34N 48°52' W 123°19'8 7.6
2015-Jun-26 23:33N 48°58' W 123°11'3 3.3
2015-Jun-26 22:34N 49°00' W 123°08'1212.0
2015-Jun-26 21:33N 48°52' W 123°20'4 3.6
2015-Jun-26 20:24N 48°51' W 123°27'6 7.2
2015-Jun-26 19:34N 48°48' W 123°19'5 4.8
2015-Jun-26 18:33N 48°53' W 123°19'9 9.3
2015-Jun-26 17:34N 48°59' W 123°09'1 1.4
2015-Jun-26 16:33N 49°00' W 123°08'1010.1
2015-Jun-26 15:33N 48°53' W 123°18'2 2.3
2015-Jun-26 14:33N 48°51' W 123°20'3 3.4
2015-Jun-26 13:33N 48°49' W 123°24'3 1.3
2015-Jun-26 11:22N 48°51' W 123°27'0 0.0
2015-Jun-26 10:13N 48°51' W 123°27'0 0.1
2015-Jun-26 05:30N 48°51' W 123°26'4 4.5
2015-Jun-26 04:33N 48°50' W 123°20'3 2.9
2015-Jun-26 03:33N 48°53' W 123°19'1110.7
2015-Jun-26 02:33N 49°00' W 123°08'0 0.3
2015-Jun-26 01:34N 49°00' W 123°08'1010.4
2015-Jun-26 00:33N 48°53' W 123°19'2 1.9
2015-Jun-25 23:33N 48°51' W 123°20'4 3.6
2015-Jun-25 22:34N 48°50' W 123°25'1 0.5
2015-Jun-25 20:14N 48°51' W 123°26'6 8.0
2015-Jun-25 19:31N 48°48' W 123°19'4 4.5
2015-Jun-25 18:34N 48°52' W 123°18'8 8.1
2015-Jun-25 17:34N 48°59' W 123°11'3 2.7
2015-Jun-25 16:34N 49°00' W 123°08'1010.4
2015-Jun-25 15:33N 48°53' W 123°18'2 2.1
2015-Jun-25 14:33N 48°51' W 123°20'3 3.4
2015-Jun-25 13:33N 48°49' W 123°24'3 1.0
2015-Jun-25 11:04N 48°51' W 123°27'0 0.0
2015-Jun-25 10:31N 48°51' W 123°27'0 0.0
2015-Jun-25 09:33N 48°51' W 123°27'0 0.0
2015-Jun-25 06:33N 48°51' W 123°27'0 0.0
2015-Jun-25 05:29N 48°51' W 123°27'6 6.5
2015-Jun-25 04:33N 48°48' W 123°19'5 4.6
2015-Jun-25 03:33N 48°53' W 123°19'9 9.1
2015-Jun-25 02:33N 48°59' W 123°09'1 1.4
2015-Jun-25 01:33N 49°00' W 123°08'1110.7
2015-Jun-25 00:33N 48°53' W 123°19'3 2.5
2015-Jun-24 23:33N 48°50' W 123°20'3 3.0
2015-Jun-24 22:33N 48°50' W 123°25'1 0.5
2015-Jun-24 20:14N 48°51' W 123°26'6 7.3
2015-Jun-24 19:29N 48°48' W 123°19'5 5.0
2015-Jun-24 18:33N 48°53' W 123°19'9 9.0
2015-Jun-24 17:33N 48°59' W 123°10'2 1.7
2015-Jun-24 16:33N 49°00' W 123°08'10 9.9
2015-Jun-24 15:33N 48°53' W 123°18'3 2.6
2015-Jun-24 14:31N 48°51' W 123°20'3 3.4
2015-Jun-24 13:33N 48°49' W 123°24'3 2.1
2015-Jun-24 12:17N 48°51' W 123°27'0 0.0
2015-Jun-24 11:32N 48°51' W 123°27'0 0.0
2015-Jun-24 10:31N 48°51' W 123°27'  

Dump ship's entire track history